sensor_id;sensor_type;location;lat;lon;timestamp;P1;durP1;ratioP1;P2;durP2;ratioP2
22282;SDS011;11310;51.528;21.204;2023-06-22T00:01:05;14.63;;;8.52;;
22282;SDS011;11310;51.528;21.204;2023-06-22T00:03:36;13.83;;;8.80;;
22282;SDS011;11310;51.528;21.204;2023-06-22T00:06:04;13.77;;;9.38;;
22282;SDS011;11310;51.528;21.204;2023-06-22T00:08:33;15.27;;;9.48;;
22282;SDS011;11310;51.528;21.204;2023-06-22T00:11:02;11.90;;;8.30;;
22282;SDS011;11310;51.528;21.204;2023-06-22T00:13:31;11.80;;;8.32;;
22282;SDS011;11310;51.528;21.204;2023-06-22T00:16:00;12.05;;;7.78;;
22282;SDS011;11310;51.528;21.204;2023-06-22T00:18:29;11.30;;;7.32;;
22282;SDS011;11310;51.528;21.204;2023-06-22T00:20:59;11.68;;;7.78;;
22282;SDS011;11310;51.528;21.204;2023-06-22T00:23:28;11.85;;;7.50;;
22282;SDS011;11310;51.528;21.204;2023-06-22T00:26:01;10.57;;;6.78;;
22282;SDS011;11310;51.528;21.204;2023-06-22T00:28:29;11.25;;;7.05;;
22282;SDS011;11310;51.528;21.204;2023-06-22T00:31:01;9.63;;;5.80;;
22282;SDS011;11310;51.528;21.204;2023-06-22T00:33:33;9.95;;;6.47;;
22282;SDS011;11310;51.528;21.204;2023-06-22T00:36:05;9.95;;;6.30;;
22282;SDS011;11310;51.528;21.204;2023-06-22T00:38:37;10.07;;;6.57;;
22282;SDS011;11310;51.528;21.204;2023-06-22T00:41:07;13.15;;;6.60;;
22282;SDS011;11310;51.528;21.204;2023-06-22T00:43:36;10.43;;;7.00;;
22282;SDS011;11310;51.528;21.204;2023-06-22T00:46:06;11.50;;;7.15;;
22282;SDS011;11310;51.528;21.204;2023-06-22T00:48:35;13.00;;;7.63;;
22282;SDS011;11310;51.528;21.204;2023-06-22T00:51:04;12.15;;;6.82;;
22282;SDS011;11310;51.528;21.204;2023-06-22T00:53:33;11.52;;;6.88;;
22282;SDS011;11310;51.528;21.204;2023-06-22T00:56:04;10.00;;;6.82;;
22282;SDS011;11310;51.528;21.204;2023-06-22T00:58:35;10.02;;;6.65;;
22282;SDS011;11310;51.528;21.204;2023-06-22T01:01:05;12.85;;;6.90;;
22282;SDS011;11310;51.528;21.204;2023-06-22T01:03:36;12.07;;;7.03;;
22282;SDS011;11310;51.528;21.204;2023-06-22T01:06:06;10.68;;;6.18;;
22282;SDS011;11310;51.528;21.204;2023-06-22T01:08:49;10.43;;;7.50;;
22282;SDS011;11310;51.528;21.204;2023-06-22T01:11:25;11.25;;;6.80;;
22282;SDS011;11310;51.528;21.204;2023-06-22T01:14:03;9.52;;;6.47;;
22282;SDS011;11310;51.528;21.204;2023-06-22T01:16:37;11.75;;;6.78;;
22282;SDS011;11310;51.528;21.204;2023-06-22T01:19:16;12.18;;;7.18;;
22282;SDS011;11310;51.528;21.204;2023-06-22T01:22:02;11.75;;;6.63;;
22282;SDS011;11310;51.528;21.204;2023-06-22T01:24:45;12.18;;;6.80;;
22282;SDS011;11310;51.528;21.204;2023-06-22T01:27:28;11.48;;;6.57;;
22282;SDS011;11310;51.528;21.204;2023-06-22T01:30:10;10.20;;;5.85;;
22282;SDS011;11310;51.528;21.204;2023-06-22T01:32:39;9.68;;;6.03;;
22282;SDS011;11310;51.528;21.204;2023-06-22T01:35:09;9.77;;;5.28;;
22282;SDS011;11310;51.528;21.204;2023-06-22T01:37:39;9.93;;;6.50;;
22282;SDS011;11310;51.528;21.204;2023-06-22T01:40:08;9.88;;;5.60;;
22282;SDS011;11310;51.528;21.204;2023-06-22T01:42:37;8.32;;;5.50;;
22282;SDS011;11310;51.528;21.204;2023-06-22T01:45:07;10.05;;;5.80;;
22282;SDS011;11310;51.528;21.204;2023-06-22T01:47:41;10.45;;;6.03;;
22282;SDS011;11310;51.528;21.204;2023-06-22T01:50:11;9.98;;;6.53;;
22282;SDS011;11310;51.528;21.204;2023-06-22T01:52:40;10.75;;;5.63;;
22282;SDS011;11310;51.528;21.204;2023-06-22T01:55:09;10.38;;;5.88;;
22282;SDS011;11310;51.528;21.204;2023-06-22T01:57:39;10.20;;;6.22;;
22282;SDS011;11310;51.528;21.204;2023-06-22T02:00:11;11.15;;;6.10;;
22282;SDS011;11310;51.528;21.204;2023-06-22T02:02:49;11.90;;;6.30;;
22282;SDS011;11310;51.528;21.204;2023-06-22T02:05:23;11.48;;;6.05;;
22282;SDS011;11310;51.528;21.204;2023-06-22T02:07:56;12.68;;;5.57;;
22282;SDS011;11310;51.528;21.204;2023-06-22T02:10:31;9.52;;;5.60;;
22282;SDS011;11310;51.528;21.204;2023-06-22T02:13:01;9.70;;;5.78;;
22282;SDS011;11310;51.528;21.204;2023-06-22T02:15:34;9.48;;;5.63;;
22282;SDS011;11310;51.528;21.204;2023-06-22T02:18:03;9.10;;;5.72;;
22282;SDS011;11310;51.528;21.204;2023-06-22T02:20:32;9.65;;;5.55;;
22282;SDS011;11310;51.528;21.204;2023-06-22T02:23:01;10.25;;;5.57;;
22282;SDS011;11310;51.528;21.204;2023-06-22T02:25:30;10.18;;;5.50;;
22282;SDS011;11310;51.528;21.204;2023-06-22T02:27:59;9.00;;;5.63;;
22282;SDS011;11310;51.528;21.204;2023-06-22T02:30:28;8.82;;;5.28;;
22282;SDS011;11310;51.528;21.204;2023-06-22T02:33:00;10.95;;;5.35;;
22282;SDS011;11310;51.528;21.204;2023-06-22T02:35:29;9.00;;;5.45;;
22282;SDS011;11310;51.528;21.204;2023-06-22T02:37:58;9.43;;;5.18;;
22282;SDS011;11310;51.528;21.204;2023-06-22T02:40:27;8.73;;;5.18;;
22282;SDS011;11310;51.528;21.204;2023-06-22T02:42:58;10.30;;;5.72;;
22282;SDS011;11310;51.528;21.204;2023-06-22T02:45:29;10.77;;;5.40;;
22282;SDS011;11310;51.528;21.204;2023-06-22T02:48:00;10.60;;;5.25;;
22282;SDS011;11310;51.528;21.204;2023-06-22T02:50:28;8.73;;;4.78;;
22282;SDS011;11310;51.528;21.204;2023-06-22T02:52:58;8.15;;;4.65;;
22282;SDS011;11310;51.528;21.204;2023-06-22T02:55:29;12.88;;;5.35;;
22282;SDS011;11310;51.528;21.204;2023-06-22T02:57:58;8.50;;;5.10;;
22282;SDS011;11310;51.528;21.204;2023-06-22T03:00:34;7.57;;;4.45;;
22282;SDS011;11310;51.528;21.204;2023-06-22T03:03:04;7.93;;;4.90;;
22282;SDS011;11310;51.528;21.204;2023-06-22T03:05:33;8.85;;;5.13;;
22282;SDS011;11310;51.528;21.204;2023-06-22T03:08:02;8.75;;;4.65;;
22282;SDS011;11310;51.528;21.204;2023-06-22T03:10:33;9.73;;;5.27;;
22282;SDS011;11310;51.528;21.204;2023-06-22T03:13:02;8.15;;;4.35;;
22282;SDS011;11310;51.528;21.204;2023-06-22T03:15:31;10.48;;;4.75;;
22282;SDS011;11310;51.528;21.204;2023-06-22T03:18:00;8.95;;;4.97;;
22282;SDS011;11310;51.528;21.204;2023-06-22T03:20:32;9.18;;;4.93;;
22282;SDS011;11310;51.528;21.204;2023-06-22T03:23:00;8.73;;;4.85;;
22282;SDS011;11310;51.528;21.204;2023-06-22T03:25:29;9.52;;;4.88;;
22282;SDS011;11310;51.528;21.204;2023-06-22T03:27:58;10.27;;;4.50;;
22282;SDS011;11310;51.528;21.204;2023-06-22T03:30:27;13.13;;;5.63;;
22282;SDS011;11310;51.528;21.204;2023-06-22T03:32:56;8.52;;;4.65;;
22282;SDS011;11310;51.528;21.204;2023-06-22T03:35:25;10.50;;;5.22;;
22282;SDS011;11310;51.528;21.204;2023-06-22T03:37:56;9.85;;;5.20;;
22282;SDS011;11310;51.528;21.204;2023-06-22T03:40:26;10.10;;;5.15;;
22282;SDS011;11310;51.528;21.204;2023-06-22T03:42:55;7.68;;;4.70;;
22282;SDS011;11310;51.528;21.204;2023-06-22T03:45:24;10.27;;;4.78;;
22282;SDS011;11310;51.528;21.204;2023-06-22T03:47:53;12.63;;;5.35;;
22282;SDS011;11310;51.528;21.204;2023-06-22T03:50:21;8.52;;;5.40;;
22282;SDS011;11310;51.528;21.204;2023-06-22T03:52:53;9.82;;;5.10;;
22282;SDS011;11310;51.528;21.204;2023-06-22T03:55:24;12.10;;;6.15;;
22282;SDS011;11310;51.528;21.204;2023-06-22T03:57:53;10.05;;;5.60;;
22282;SDS011;11310;51.528;21.204;2023-06-22T04:00:24;13.52;;;5.90;;
22282;SDS011;11310;51.528;21.204;2023-06-22T04:02:53;9.23;;;4.88;;
22282;SDS011;11310;51.528;21.204;2023-06-22T04:05:22;9.38;;;5.57;;
22282;SDS011;11310;51.528;21.204;2023-06-22T04:07:51;10.75;;;5.40;;
22282;SDS011;11310;51.528;21.204;2023-06-22T04:10:19;14.63;;;6.10;;
22282;SDS011;11310;51.528;21.204;2023-06-22T04:12:49;9.02;;;5.68;;
22282;SDS011;11310;51.528;21.204;2023-06-22T04:15:18;10.38;;;6.18;;
22282;SDS011;11310;51.528;21.204;2023-06-22T04:17:47;11.45;;;6.13;;
22282;SDS011;11310;51.528;21.204;2023-06-22T04:20:15;9.70;;;5.97;;
22282;SDS011;11310;51.528;21.204;2023-06-22T04:22:44;10.68;;;6.22;;
22282;SDS011;11310;51.528;21.204;2023-06-22T04:25:14;12.13;;;6.35;;
22282;SDS011;11310;51.528;21.204;2023-06-22T04:27:43;10.82;;;6.70;;
22282;SDS011;11310;51.528;21.204;2023-06-22T04:30:13;12.10;;;6.65;;
22282;SDS011;11310;51.528;21.204;2023-06-22T04:32:43;11.10;;;6.47;;
22282;SDS011;11310;51.528;21.204;2023-06-22T04:35:12;11.82;;;6.75;;
22282;SDS011;11310;51.528;21.204;2023-06-22T04:37:42;14.85;;;7.38;;
22282;SDS011;11310;51.528;21.204;2023-06-22T04:40:15;13.93;;;8.07;;
22282;SDS011;11310;51.528;21.204;2023-06-22T04:42:44;15.00;;;8.68;;
22282;SDS011;11310;51.528;21.204;2023-06-22T04:45:20;13.50;;;9.05;;
22282;SDS011;11310;51.528;21.204;2023-06-22T04:47:49;13.90;;;9.10;;
22282;SDS011;11310;51.528;21.204;2023-06-22T04:50:18;16.08;;;9.40;;
22282;SDS011;11310;51.528;21.204;2023-06-22T04:52:47;15.18;;;10.02;;
22282;SDS011;11310;51.528;21.204;2023-06-22T04:55:16;18.55;;;10.73;;
22282;SDS011;11310;51.528;21.204;2023-06-22T04:57:46;18.15;;;11.88;;
22282;SDS011;11310;51.528;21.204;2023-06-22T05:00:17;16.67;;;10.60;;
22282;SDS011;11310;51.528;21.204;2023-06-22T05:02:51;18.77;;;11.50;;
22282;SDS011;11310;51.528;21.204;2023-06-22T05:05:36;19.45;;;11.73;;
22282;SDS011;11310;51.528;21.204;2023-06-22T05:08:05;16.98;;;11.30;;
22282;SDS011;11310;51.528;21.204;2023-06-22T05:10:34;18.67;;;11.60;;
22282;SDS011;11310;51.528;21.204;2023-06-22T05:13:05;18.05;;;11.50;;
22282;SDS011;11310;51.528;21.204;2023-06-22T05:15:34;20.98;;;13.05;;
22282;SDS011;11310;51.528;21.204;2023-06-22T05:18:08;19.17;;;12.95;;
22282;SDS011;11310;51.528;21.204;2023-06-22T05:20:39;21.65;;;13.35;;
22282;SDS011;11310;51.528;21.204;2023-06-22T05:23:07;22.40;;;15.07;;
22282;SDS011;11310;51.528;21.204;2023-06-22T05:25:36;22.65;;;15.30;;
22282;SDS011;11310;51.528;21.204;2023-06-22T05:28:05;24.75;;;14.60;;
22282;SDS011;11310;51.528;21.204;2023-06-22T05:30:38;21.48;;;14.45;;
22282;SDS011;11310;51.528;21.204;2023-06-22T05:33:08;21.30;;;14.93;;
22282;SDS011;11310;51.528;21.204;2023-06-22T05:35:37;23.05;;;14.25;;
22282;SDS011;11310;51.528;21.204;2023-06-22T05:38:05;33.72;;;15.90;;
22282;SDS011;11310;51.528;21.204;2023-06-22T05:40:34;23.67;;;15.23;;
22282;SDS011;11310;51.528;21.204;2023-06-22T05:43:03;22.90;;;15.20;;
22282;SDS011;11310;51.528;21.204;2023-06-22T05:45:31;24.67;;;14.20;;
22282;SDS011;11310;51.528;21.204;2023-06-22T05:48:00;22.27;;;15.07;;
22282;SDS011;11310;51.528;21.204;2023-06-22T05:50:30;20.65;;;13.60;;
22282;SDS011;11310;51.528;21.204;2023-06-22T05:52:59;22.38;;;15.00;;
22282;SDS011;11310;51.528;21.204;2023-06-22T05:55:27;21.15;;;14.48;;
22282;SDS011;11310;51.528;21.204;2023-06-22T05:57:56;21.17;;;14.25;;
22282;SDS011;11310;51.528;21.204;2023-06-22T06:00:24;21.48;;;14.27;;
22282;SDS011;11310;51.528;21.204;2023-06-22T06:02:53;21.38;;;14.40;;
22282;SDS011;11310;51.528;21.204;2023-06-22T06:05:22;19.55;;;13.40;;
22282;SDS011;11310;51.528;21.204;2023-06-22T06:07:53;21.80;;;14.50;;
22282;SDS011;11310;51.528;21.204;2023-06-22T06:10:22;23.40;;;14.27;;
22282;SDS011;11310;51.528;21.204;2023-06-22T06:12:50;20.92;;;14.60;;
22282;SDS011;11310;51.528;21.204;2023-06-22T06:15:19;20.42;;;14.25;;
22282;SDS011;11310;51.528;21.204;2023-06-22T06:17:48;21.00;;;13.75;;
22282;SDS011;11310;51.528;21.204;2023-06-22T06:20:18;21.63;;;14.60;;
22282;SDS011;11310;51.528;21.204;2023-06-22T06:22:48;21.25;;;13.90;;
22282;SDS011;11310;51.528;21.204;2023-06-22T06:25:19;20.48;;;14.18;;
22282;SDS011;11310;51.528;21.204;2023-06-22T06:27:49;19.35;;;13.35;;
22282;SDS011;11310;51.528;21.204;2023-06-22T06:30:21;20.17;;;13.27;;
22282;SDS011;11310;51.528;21.204;2023-06-22T06:32:50;25.55;;;13.98;;
22282;SDS011;11310;51.528;21.204;2023-06-22T06:35:19;22.60;;;13.75;;
22282;SDS011;11310;51.528;21.204;2023-06-22T06:37:49;21.75;;;12.80;;
22282;SDS011;11310;51.528;21.204;2023-06-22T06:40:20;23.85;;;13.80;;
22282;SDS011;11310;51.528;21.204;2023-06-22T06:42:48;22.25;;;11.85;;
22282;SDS011;11310;51.528;21.204;2023-06-22T06:45:18;19.45;;;11.43;;
22282;SDS011;11310;51.528;21.204;2023-06-22T06:47:49;18.35;;;11.85;;
22282;SDS011;11310;51.528;21.204;2023-06-22T06:50:19;17.15;;;12.63;;
22282;SDS011;11310;51.528;21.204;2023-06-22T06:52:48;20.63;;;12.77;;
22282;SDS011;11310;51.528;21.204;2023-06-22T06:55:23;20.83;;;12.65;;
22282;SDS011;11310;51.528;21.204;2023-06-22T06:57:52;17.60;;;12.00;;
22282;SDS011;11310;51.528;21.204;2023-06-22T07:00:21;17.00;;;11.25;;
22282;SDS011;11310;51.528;21.204;2023-06-22T07:02:50;18.02;;;11.43;;
22282;SDS011;11310;51.528;21.204;2023-06-22T07:08:10;21.63;;;13.30;;
22282;SDS011;11310;51.528;21.204;2023-06-22T07:10:41;17.60;;;12.48;;
22282;SDS011;11310;51.528;21.204;2023-06-22T07:13:09;21.45;;;12.60;;
22282;SDS011;11310;51.528;21.204;2023-06-22T07:15:38;20.00;;;11.55;;
22282;SDS011;11310;51.528;21.204;2023-06-22T07:18:08;20.27;;;12.48;;
22282;SDS011;11310;51.528;21.204;2023-06-22T07:20:36;17.92;;;12.45;;
22282;SDS011;11310;51.528;21.204;2023-06-22T07:23:06;15.93;;;11.77;;
22282;SDS011;11310;51.528;21.204;2023-06-22T07:25:34;16.23;;;10.90;;
22282;SDS011;11310;51.528;21.204;2023-06-22T07:28:05;17.88;;;11.82;;
22282;SDS011;11310;51.528;21.204;2023-06-22T07:30:35;16.98;;;12.30;;
22282;SDS011;11310;51.528;21.204;2023-06-22T07:33:04;16.75;;;11.65;;
22282;SDS011;11310;51.528;21.204;2023-06-22T07:35:35;26.15;;;11.18;;
22282;SDS011;11310;51.528;21.204;2023-06-22T07:38:04;17.40;;;12.60;;
22282;SDS011;11310;51.528;21.204;2023-06-22T07:40:32;19.60;;;11.88;;
22282;SDS011;11310;51.528;21.204;2023-06-22T07:43:02;15.35;;;11.85;;
22282;SDS011;11310;51.528;21.204;2023-06-22T07:45:33;23.58;;;11.32;;
22282;SDS011;11310;51.528;21.204;2023-06-22T07:48:02;16.02;;;11.13;;
22282;SDS011;11310;51.528;21.204;2023-06-22T07:50:31;16.05;;;10.93;;
22282;SDS011;11310;51.528;21.204;2023-06-22T07:52:59;17.17;;;11.80;;
22282;SDS011;11310;51.528;21.204;2023-06-22T07:55:28;15.90;;;10.88;;
22282;SDS011;11310;51.528;21.204;2023-06-22T07:57:57;19.65;;;11.68;;
22282;SDS011;11310;51.528;21.204;2023-06-22T08:00:26;15.43;;;11.15;;
22282;SDS011;11310;51.528;21.204;2023-06-22T08:02:56;18.10;;;12.63;;
22282;SDS011;11310;51.528;21.204;2023-06-22T08:05:24;17.50;;;11.43;;
22282;SDS011;11310;51.528;21.204;2023-06-22T08:07:54;18.48;;;11.60;;
22282;SDS011;11310;51.528;21.204;2023-06-22T08:10:23;21.05;;;11.43;;
22282;SDS011;11310;51.528;21.204;2023-06-22T08:12:53;20.70;;;11.38;;
22282;SDS011;11310;51.528;21.204;2023-06-22T08:15:21;17.30;;;10.75;;
22282;SDS011;11310;51.528;21.204;2023-06-22T08:17:52;18.23;;;10.15;;
22282;SDS011;11310;51.528;21.204;2023-06-22T08:20:22;32.65;;;10.57;;
22282;SDS011;11310;51.528;21.204;2023-06-22T08:22:53;19.63;;;11.23;;
22282;SDS011;11310;51.528;21.204;2023-06-22T08:25:26;14.02;;;10.73;;
22282;SDS011;11310;51.528;21.204;2023-06-22T08:27:55;28.80;;;11.13;;
22282;SDS011;11310;51.528;21.204;2023-06-22T08:30:24;16.27;;;10.07;;
22282;SDS011;11310;51.528;21.204;2023-06-22T08:32:53;13.05;;;9.70;;
22282;SDS011;11310;51.528;21.204;2023-06-22T08:35:23;12.45;;;9.50;;
22282;SDS011;11310;51.528;21.204;2023-06-22T08:37:52;14.85;;;9.43;;
22282;SDS011;11310;51.528;21.204;2023-06-22T08:40:22;12.88;;;8.93;;
22282;SDS011;11310;51.528;21.204;2023-06-22T08:42:51;12.75;;;9.07;;
22282;SDS011;11310;51.528;21.204;2023-06-22T08:45:20;12.25;;;8.27;;
22282;SDS011;11310;51.528;21.204;2023-06-22T08:47:48;13.30;;;8.35;;
22282;SDS011;11310;51.528;21.204;2023-06-22T08:50:17;10.27;;;6.97;;
22282;SDS011;11310;51.528;21.204;2023-06-22T08:52:48;10.40;;;8.02;;
22282;SDS011;11310;51.528;21.204;2023-06-22T08:55:16;14.25;;;7.95;;
22282;SDS011;11310;51.528;21.204;2023-06-22T08:57:45;14.07;;;7.15;;
22282;SDS011;11310;51.528;21.204;2023-06-22T09:00:14;9.38;;;6.60;;
22282;SDS011;11310;51.528;21.204;2023-06-22T09:02:45;10.63;;;7.25;;
22282;SDS011;11310;51.528;21.204;2023-06-22T09:05:14;11.70;;;7.25;;
22282;SDS011;11310;51.528;21.204;2023-06-22T09:07:44;10.20;;;7.28;;
22282;SDS011;11310;51.528;21.204;2023-06-22T09:10:14;9.30;;;6.50;;
22282;SDS011;11310;51.528;21.204;2023-06-22T09:12:43;11.38;;;6.43;;
22282;SDS011;11310;51.528;21.204;2023-06-22T09:15:11;8.95;;;5.57;;
22282;SDS011;11310;51.528;21.204;2023-06-22T09:17:53;8.48;;;5.28;;
22282;SDS011;11310;51.528;21.204;2023-06-22T09:20:22;8.77;;;5.20;;
22282;SDS011;11310;51.528;21.204;2023-06-22T09:22:51;8.98;;;6.05;;
22282;SDS011;11310;51.528;21.204;2023-06-22T09:25:21;8.27;;;5.85;;
22282;SDS011;11310;51.528;21.204;2023-06-22T09:27:49;9.35;;;5.32;;
22282;SDS011;11310;51.528;21.204;2023-06-22T09:30:18;7.70;;;4.97;;
22282;SDS011;11310;51.528;21.204;2023-06-22T09:32:47;11.43;;;5.30;;
22282;SDS011;11310;51.528;21.204;2023-06-22T09:35:16;8.45;;;3.83;;
22282;SDS011;11310;51.528;21.204;2023-06-22T09:37:45;6.18;;;3.63;;
22282;SDS011;11310;51.528;21.204;2023-06-22T09:40:13;9.93;;;4.65;;
22282;SDS011;11310;51.528;21.204;2023-06-22T09:45:15;8.45;;;4.10;;
22282;SDS011;11310;51.528;21.204;2023-06-22T09:47:44;15.65;;;4.75;;
22282;SDS011;11310;51.528;21.204;2023-06-22T09:50:13;7.15;;;4.10;;
22282;SDS011;11310;51.528;21.204;2023-06-22T09:52:42;8.77;;;3.80;;
22282;SDS011;11310;51.528;21.204;2023-06-22T09:55:22;18.60;;;4.30;;
22282;SDS011;11310;51.528;21.204;2023-06-22T09:57:52;7.18;;;3.53;;
22282;SDS011;11310;51.528;21.204;2023-06-22T10:00:22;6.63;;;3.75;;
22282;SDS011;11310;51.528;21.204;2023-06-22T10:02:54;6.07;;;3.40;;
22282;SDS011;11310;51.528;21.204;2023-06-22T10:05:27;7.95;;;3.58;;
22282;SDS011;11310;51.528;21.204;2023-06-22T10:07:56;5.55;;;3.25;;
22282;SDS011;11310;51.528;21.204;2023-06-22T10:10:25;6.63;;;3.20;;
22282;SDS011;11310;51.528;21.204;2023-06-22T10:12:56;7.30;;;3.58;;
22282;SDS011;11310;51.528;21.204;2023-06-22T10:15:25;6.25;;;3.22;;
22282;SDS011;11310;51.528;21.204;2023-06-22T10:17:55;8.98;;;3.05;;
22282;SDS011;11310;51.528;21.204;2023-06-22T10:20:24;6.07;;;2.90;;
22282;SDS011;11310;51.528;21.204;2023-06-22T10:22:53;5.25;;;2.92;;
22282;SDS011;11310;51.528;21.204;2023-06-22T10:25:26;5.55;;;3.03;;
22282;SDS011;11310;51.528;21.204;2023-06-22T10:27:56;5.85;;;3.22;;
22282;SDS011;11310;51.528;21.204;2023-06-22T10:30:25;7.70;;;2.90;;
22282;SDS011;11310;51.528;21.204;2023-06-22T10:32:53;12.82;;;3.05;;
22282;SDS011;11310;51.528;21.204;2023-06-22T10:35:22;6.32;;;3.42;;
22282;SDS011;11310;51.528;21.204;2023-06-22T10:37:50;4.45;;;2.60;;
22282;SDS011;11310;51.528;21.204;2023-06-22T10:40:19;5.43;;;2.30;;
22282;SDS011;11310;51.528;21.204;2023-06-22T10:42:47;4.78;;;2.63;;
22282;SDS011;11310;51.528;21.204;2023-06-22T10:45:19;5.20;;;2.63;;
22282;SDS011;11310;51.528;21.204;2023-06-22T10:47:47;3.47;;;2.00;;
22282;SDS011;11310;51.528;21.204;2023-06-22T10:50:16;4.60;;;2.40;;
22282;SDS011;11310;51.528;21.204;2023-06-22T10:52:46;6.93;;;2.95;;
22282;SDS011;11310;51.528;21.204;2023-06-22T10:55:19;6.47;;;2.30;;
22282;SDS011;11310;51.528;21.204;2023-06-22T10:57:48;4.40;;;2.42;;
22282;SDS011;11310;51.528;21.204;2023-06-22T11:00:18;4.80;;;2.33;;
22282;SDS011;11310;51.528;21.204;2023-06-22T11:02:48;5.93;;;2.78;;
22282;SDS011;11310;51.528;21.204;2023-06-22T11:05:17;4.25;;;2.30;;
22282;SDS011;11310;51.528;21.204;2023-06-22T11:07:45;7.68;;;2.50;;
22282;SDS011;11310;51.528;21.204;2023-06-22T11:10:16;7.23;;;2.20;;
22282;SDS011;11310;51.528;21.204;2023-06-22T11:12:45;7.68;;;3.17;;
22282;SDS011;11310;51.528;21.204;2023-06-22T11:15:13;7.13;;;2.42;;
22282;SDS011;11310;51.528;21.204;2023-06-22T11:17:43;4.00;;;2.42;;
22282;SDS011;11310;51.528;21.204;2023-06-22T11:20:12;6.55;;;2.67;;
22282;SDS011;11310;51.528;21.204;2023-06-22T11:22:40;7.93;;;3.20;;
22282;SDS011;11310;51.528;21.204;2023-06-22T11:25:11;5.78;;;2.92;;
22282;SDS011;11310;51.528;21.204;2023-06-22T11:27:41;5.90;;;2.72;;
22282;SDS011;11310;51.528;21.204;2023-06-22T11:30:10;6.65;;;2.83;;
22282;SDS011;11310;51.528;21.204;2023-06-22T11:32:40;9.02;;;2.90;;
22282;SDS011;11310;51.528;21.204;2023-06-22T11:35:10;8.18;;;2.88;;
22282;SDS011;11310;51.528;21.204;2023-06-22T11:37:38;21.23;;;3.95;;
22282;SDS011;11310;51.528;21.204;2023-06-22T11:40:10;8.43;;;3.33;;
22282;SDS011;11310;51.528;21.204;2023-06-22T11:42:39;4.72;;;2.78;;
22282;SDS011;11310;51.528;21.204;2023-06-22T11:45:11;4.95;;;2.47;;
22282;SDS011;11310;51.528;21.204;2023-06-22T11:47:41;6.88;;;2.72;;
22282;SDS011;11310;51.528;21.204;2023-06-22T11:50:11;5.63;;;2.30;;
22282;SDS011;11310;51.528;21.204;2023-06-22T11:52:40;4.43;;;2.85;;
22282;SDS011;11310;51.528;21.204;2023-06-22T11:55:09;4.22;;;2.60;;
22282;SDS011;11310;51.528;21.204;2023-06-22T11:57:38;5.47;;;2.65;;
22282;SDS011;11310;51.528;21.204;2023-06-22T12:00:21;17.23;;;4.40;;
22282;SDS011;11310;51.528;21.204;2023-06-22T12:02:55;10.73;;;2.50;;
22282;SDS011;11310;51.528;21.204;2023-06-22T12:05:28;11.25;;;3.65;;
22282;SDS011;11310;51.528;21.204;2023-06-22T12:07:57;8.60;;;2.63;;
22282;SDS011;11310;51.528;21.204;2023-06-22T12:10:25;5.93;;;2.50;;
22282;SDS011;11310;51.528;21.204;2023-06-22T12:12:56;13.53;;;2.80;;
22282;SDS011;11310;51.528;21.204;2023-06-22T12:15:27;4.55;;;2.58;;
22282;SDS011;11310;51.528;21.204;2023-06-22T12:17:56;5.28;;;2.35;;
22282;SDS011;11310;51.528;21.204;2023-06-22T12:20:25;6.07;;;2.30;;
22282;SDS011;11310;51.528;21.204;2023-06-22T12:22:55;20.77;;;3.50;;
22282;SDS011;11310;51.528;21.204;2023-06-22T12:25:25;6.70;;;2.53;;
22282;SDS011;11310;51.528;21.204;2023-06-22T12:28:00;10.13;;;2.22;;
22282;SDS011;11310;51.528;21.204;2023-06-22T12:30:32;4.15;;;2.28;;
22282;SDS011;11310;51.528;21.204;2023-06-22T12:33:03;3.03;;;2.03;;
22282;SDS011;11310;51.528;21.204;2023-06-22T12:35:32;4.00;;;2.28;;
22282;SDS011;11310;51.528;21.204;2023-06-22T12:38:02;3.80;;;1.92;;
22282;SDS011;11310;51.528;21.204;2023-06-22T12:40:36;4.07;;;1.85;;
22282;SDS011;11310;51.528;21.204;2023-06-22T12:43:05;5.13;;;1.90;;
22282;SDS011;11310;51.528;21.204;2023-06-22T12:45:34;4.70;;;1.98;;
22282;SDS011;11310;51.528;21.204;2023-06-22T12:48:04;4.88;;;1.85;;
22282;SDS011;11310;51.528;21.204;2023-06-22T12:50:33;3.08;;;1.88;;
22282;SDS011;11310;51.528;21.204;2023-06-22T12:53:03;4.97;;;2.00;;
22282;SDS011;11310;51.528;21.204;2023-06-22T12:55:33;4.15;;;2.00;;
22282;SDS011;11310;51.528;21.204;2023-06-22T12:58:01;6.47;;;1.92;;
22282;SDS011;11310;51.528;21.204;2023-06-22T13:00:30;4.68;;;2.00;;
22282;SDS011;11310;51.528;21.204;2023-06-22T13:02:59;4.25;;;2.22;;
22282;SDS011;11310;51.528;21.204;2023-06-22T13:05:28;10.02;;;2.50;;
22282;SDS011;11310;51.528;21.204;2023-06-22T13:07:57;4.68;;;1.80;;
22282;SDS011;11310;51.528;21.204;2023-06-22T13:10:27;9.32;;;2.47;;
22282;SDS011;11310;51.528;21.204;2023-06-22T13:12:56;7.13;;;1.90;;
22282;SDS011;11310;51.528;21.204;2023-06-22T13:18:00;4.05;;;1.77;;
22282;SDS011;11310;51.528;21.204;2023-06-22T13:20:29;4.85;;;2.08;;
22282;SDS011;11310;51.528;21.204;2023-06-22T13:22:58;3.22;;;1.75;;
22282;SDS011;11310;51.528;21.204;2023-06-22T13:25:28;6.05;;;2.15;;
22282;SDS011;11310;51.528;21.204;2023-06-22T13:27:57;5.05;;;2.13;;
22282;SDS011;11310;51.528;21.204;2023-06-22T13:30:26;4.72;;;1.77;;
22282;SDS011;11310;51.528;21.204;2023-06-22T13:32:55;6.53;;;2.28;;
22282;SDS011;11310;51.528;21.204;2023-06-22T13:35:24;3.95;;;2.00;;
22282;SDS011;11310;51.528;21.204;2023-06-22T13:37:53;5.53;;;1.88;;
22282;SDS011;11310;51.528;21.204;2023-06-22T13:40:21;10.05;;;3.00;;
22282;SDS011;11310;51.528;21.204;2023-06-22T13:42:51;5.28;;;2.28;;
22282;SDS011;11310;51.528;21.204;2023-06-22T13:45:22;6.32;;;2.33;;
22282;SDS011;11310;51.528;21.204;2023-06-22T13:47:50;3.60;;;2.05;;
22282;SDS011;11310;51.528;21.204;2023-06-22T13:50:19;4.53;;;2.17;;
22282;SDS011;11310;51.528;21.204;2023-06-22T13:52:48;4.07;;;2.10;;
22282;SDS011;11310;51.528;21.204;2023-06-22T13:55:19;4.40;;;2.38;;
22282;SDS011;11310;51.528;21.204;2023-06-22T13:57:48;5.25;;;2.28;;
22282;SDS011;11310;51.528;21.204;2023-06-22T14:00:20;2.80;;;1.90;;
22282;SDS011;11310;51.528;21.204;2023-06-22T14:02:49;5.70;;;1.80;;
22282;SDS011;11310;51.528;21.204;2023-06-22T14:05:18;3.22;;;2.10;;
22282;SDS011;11310;51.528;21.204;2023-06-22T14:07:47;3.85;;;2.03;;
22282;SDS011;11310;51.528;21.204;2023-06-22T14:10:17;6.22;;;2.13;;
22282;SDS011;11310;51.528;21.204;2023-06-22T14:12:45;4.05;;;2.40;;
22282;SDS011;11310;51.528;21.204;2023-06-22T14:15:14;4.25;;;2.25;;
22282;SDS011;11310;51.528;21.204;2023-06-22T14:17:44;4.10;;;2.15;;
22282;SDS011;11310;51.528;21.204;2023-06-22T14:20:13;3.75;;;2.53;;
22282;SDS011;11310;51.528;21.204;2023-06-22T14:22:41;6.40;;;2.15;;
22282;SDS011;11310;51.528;21.204;2023-06-22T14:25:10;3.40;;;2.17;;
22282;SDS011;11310;51.528;21.204;2023-06-22T14:27:38;3.95;;;2.22;;
22282;SDS011;11310;51.528;21.204;2023-06-22T14:30:08;4.30;;;2.55;;
22282;SDS011;11310;51.528;21.204;2023-06-22T14:32:39;4.82;;;2.13;;
22282;SDS011;11310;51.528;21.204;2023-06-22T14:35:09;4.10;;;2.25;;
22282;SDS011;11310;51.528;21.204;2023-06-22T14:37:37;4.82;;;2.30;;
22282;SDS011;11310;51.528;21.204;2023-06-22T14:40:06;6.07;;;2.17;;
22282;SDS011;11310;51.528;21.204;2023-06-22T14:42:35;9.45;;;2.72;;
22282;SDS011;11310;51.528;21.204;2023-06-22T14:45:04;5.88;;;2.30;;
22282;SDS011;11310;51.528;21.204;2023-06-22T14:47:34;4.85;;;2.17;;